Gastonia, North Carolina
Current Conditions -  °F | °C
As of 9:54 PM on Thursday 27 Nov 2014 (Local Time) from KAKH Reporting Station
Clear Clear  
Wind Chill: 36°   Ceiling: Unl
Heat Index: 39°   Visibility: 10mi
Dew Point: 22°   Wind: 5mph
Humidity: 50%   Direction: NA
Pressure: 30.27"   Gusts: NA
Location:  35.26°N, 81.19°W
Report Text: KAKH 280254Z AUTO VRB04KT 10SM CLR 04/M06 A3027 RMK AO2 SLP253 T00391056 51011
Loading
Personal Weather Stations






























Interactive Weather Map New forecast layout! Learn more

10-Day Weather Forecast

Advertisements
Track Severe Weather on mobile